sensor_id;sensor_type;location;lat;lon;timestamp;P1;durP1;ratioP1;P2;durP2;ratioP2
28848;SDS011;15981;43.292;-2.888;2023-01-01T00:01:26;10.00;;;4.40;;
28848;SDS011;15981;43.292;-2.888;2023-01-01T00:03:53;10.82;;;3.65;;
28848;SDS011;15981;43.292;-2.888;2023-01-01T00:06:18;9.07;;;3.40;;
28848;SDS011;15981;43.292;-2.888;2023-01-01T00:08:45;7.15;;;3.22;;
28848;SDS011;15981;43.292;-2.888;2023-01-01T00:11:10;6.32;;;2.95;;
28848;SDS011;15981;43.292;-2.888;2023-01-01T00:13:37;4.68;;;3.00;;
28848;SDS011;15981;43.292;-2.888;2023-01-01T00:16:07;6.88;;;3.10;;
28848;SDS011;15981;43.292;-2.888;2023-01-01T00:18:33;7.18;;;2.65;;
28848;SDS011;15981;43.292;-2.888;2023-01-01T00:21:03;6.97;;;2.97;;
28848;SDS011;15981;43.292;-2.888;2023-01-01T00:23:29;7.65;;;3.30;;
28848;SDS011;15981;43.292;-2.888;2023-01-01T00:25:55;5.00;;;3.55;;
28848;SDS011;15981;43.292;-2.888;2023-01-01T00:28:20;9.57;;;3.30;;
28848;SDS011;15981;43.292;-2.888;2023-01-01T00:30:46;6.07;;;3.25;;
28848;SDS011;15981;43.292;-2.888;2023-01-01T00:33:12;8.93;;;3.35;;
28848;SDS011;15981;43.292;-2.888;2023-01-01T00:35:37;6.25;;;3.05;;
28848;SDS011;15981;43.292;-2.888;2023-01-01T00:38:03;8.00;;;3.05;;
28848;SDS011;15981;43.292;-2.888;2023-01-01T00:40:29;6.10;;;3.25;;
28848;SDS011;15981;43.292;-2.888;2023-01-01T00:42:55;4.55;;;2.53;;
28848;SDS011;15981;43.292;-2.888;2023-01-01T00:45:21;8.98;;;2.85;;
28848;SDS011;15981;43.292;-2.888;2023-01-01T00:47:47;6.47;;;2.83;;
28848;SDS011;15981;43.292;-2.888;2023-01-01T00:50:12;6.18;;;3.13;;
28848;SDS011;15981;43.292;-2.888;2023-01-01T00:52:38;6.97;;;2.63;;
28848;SDS011;15981;43.292;-2.888;2023-01-01T00:55:04;7.22;;;3.20;;
28848;SDS011;15981;43.292;-2.888;2023-01-01T00:57:30;8.20;;;3.17;;
28848;SDS011;15981;43.292;-2.888;2023-01-01T00:59:56;7.63;;;3.00;;
28848;SDS011;15981;43.292;-2.888;2023-01-01T01:02:22;4.40;;;2.35;;
28848;SDS011;15981;43.292;-2.888;2023-01-01T01:04:47;6.72;;;2.90;;
28848;SDS011;15981;43.292;-2.888;2023-01-01T01:07:13;5.10;;;2.40;;
28848;SDS011;15981;43.292;-2.888;2023-01-01T01:09:39;5.03;;;2.70;;
28848;SDS011;15981;43.292;-2.888;2023-01-01T01:12:04;6.25;;;2.70;;
28848;SDS011;15981;43.292;-2.888;2023-01-01T01:14:30;5.75;;;2.50;;
28848;SDS011;15981;43.292;-2.888;2023-01-01T01:16:56;8.65;;;2.33;;
28848;SDS011;15981;43.292;-2.888;2023-01-01T01:19:22;5.53;;;2.47;;
28848;SDS011;15981;43.292;-2.888;2023-01-01T01:21:50;5.93;;;2.40;;
28848;SDS011;15981;43.292;-2.888;2023-01-01T01:24:16;8.88;;;2.50;;
28848;SDS011;15981;43.292;-2.888;2023-01-01T01:26:42;6.15;;;2.38;;
28848;SDS011;15981;43.292;-2.888;2023-01-01T01:29:08;7.32;;;2.75;;
28848;SDS011;15981;43.292;-2.888;2023-01-01T01:31:34;4.75;;;2.40;;
28848;SDS011;15981;43.292;-2.888;2023-01-01T01:34:00;8.82;;;2.63;;
28848;SDS011;15981;43.292;-2.888;2023-01-01T01:36:26;6.70;;;2.72;;
28848;SDS011;15981;43.292;-2.888;2023-01-01T01:38:52;6.10;;;2.47;;
28848;SDS011;15981;43.292;-2.888;2023-01-01T01:41:19;5.40;;;2.80;;
28848;SDS011;15981;43.292;-2.888;2023-01-01T01:43:50;6.22;;;2.60;;
28848;SDS011;15981;43.292;-2.888;2023-01-01T01:46:27;5.82;;;2.60;;
28848;SDS011;15981;43.292;-2.888;2023-01-01T01:48:55;5.68;;;2.25;;
28848;SDS011;15981;43.292;-2.888;2023-01-01T01:51:29;6.82;;;2.90;;
28848;SDS011;15981;43.292;-2.888;2023-01-01T01:53:57;7.20;;;2.45;;
28848;SDS011;15981;43.292;-2.888;2023-01-01T01:56:32;7.97;;;2.38;;
28848;SDS011;15981;43.292;-2.888;2023-01-01T01:59:01;4.82;;;2.33;;
28848;SDS011;15981;43.292;-2.888;2023-01-01T02:01:27;5.28;;;2.70;;
28848;SDS011;15981;43.292;-2.888;2023-01-01T02:06:18;7.65;;;2.78;;
28848;SDS011;15981;43.292;-2.888;2023-01-01T02:08:45;4.43;;;2.28;;
28848;SDS011;15981;43.292;-2.888;2023-01-01T02:11:11;7.68;;;2.40;;
28848;SDS011;15981;43.292;-2.888;2023-01-01T02:13:37;9.68;;;2.65;;
28848;SDS011;15981;43.292;-2.888;2023-01-01T02:16:11;6.43;;;2.53;;
28848;SDS011;15981;43.292;-2.888;2023-01-01T02:18:42;7.50;;;2.67;;
28848;SDS011;15981;43.292;-2.888;2023-01-01T02:21:13;4.70;;;2.33;;
28848;SDS011;15981;43.292;-2.888;2023-01-01T02:31:48;7.22;;;2.70;;
28848;SDS011;15981;43.292;-2.888;2023-01-01T02:34:16;4.65;;;2.42;;
28848;SDS011;15981;43.292;-2.888;2023-01-01T02:36:44;5.72;;;2.60;;
28848;SDS011;15981;43.292;-2.888;2023-01-01T02:39:13;6.00;;;2.40;;
28848;SDS011;15981;43.292;-2.888;2023-01-01T02:41:40;3.90;;;2.33;;
28848;SDS011;15981;43.292;-2.888;2023-01-01T02:44:07;5.70;;;2.30;;
28848;SDS011;15981;43.292;-2.888;2023-01-01T02:46:33;3.08;;;2.13;;
28848;SDS011;15981;43.292;-2.888;2023-01-01T02:49:00;5.63;;;2.42;;
28848;SDS011;15981;43.292;-2.888;2023-01-01T02:53:58;6.47;;;2.80;;
28848;SDS011;15981;43.292;-2.888;2023-01-01T03:01:58;4.25;;;2.55;;
28848;SDS011;15981;43.292;-2.888;2023-01-01T03:04:30;4.90;;;2.35;;
28848;SDS011;15981;43.292;-2.888;2023-01-01T03:09:53;4.63;;;2.50;;
28848;SDS011;15981;43.292;-2.888;2023-01-01T03:12:26;4.40;;;2.20;;
28848;SDS011;15981;43.292;-2.888;2023-01-01T03:15:10;6.93;;;2.47;;
28848;SDS011;15981;43.292;-2.888;2023-01-01T03:17:37;4.40;;;2.40;;
28848;SDS011;15981;43.292;-2.888;2023-01-01T03:20:07;3.47;;;2.13;;
28848;SDS011;15981;43.292;-2.888;2023-01-01T03:22:35;5.18;;;2.53;;
28848;SDS011;15981;43.292;-2.888;2023-01-01T03:25:09;5.63;;;2.25;;
28848;SDS011;15981;43.292;-2.888;2023-01-01T03:27:39;4.68;;;2.30;;
28848;SDS011;15981;43.292;-2.888;2023-01-01T03:30:07;4.43;;;2.70;;
28848;SDS011;15981;43.292;-2.888;2023-01-01T03:32:35;4.95;;;2.53;;
28848;SDS011;15981;43.292;-2.888;2023-01-01T03:35:20;5.15;;;2.30;;
28848;SDS011;15981;43.292;-2.888;2023-01-01T03:37:48;6.88;;;2.80;;
28848;SDS011;15981;43.292;-2.888;2023-01-01T03:40:16;5.13;;;2.67;;
28848;SDS011;15981;43.292;-2.888;2023-01-01T03:42:44;4.25;;;2.50;;
28848;SDS011;15981;43.292;-2.888;2023-01-01T03:45:15;6.68;;;2.47;;
28848;SDS011;15981;43.292;-2.888;2023-01-01T03:47:41;4.07;;;2.10;;
28848;SDS011;15981;43.292;-2.888;2023-01-01T03:50:07;4.45;;;2.08;;
28848;SDS011;15981;43.292;-2.888;2023-01-01T04:00:07;5.95;;;2.42;;
28848;SDS011;15981;43.292;-2.888;2023-01-01T04:02:38;3.60;;;2.42;;
28848;SDS011;15981;43.292;-2.888;2023-01-01T04:05:06;4.47;;;2.67;;
28848;SDS011;15981;43.292;-2.888;2023-01-01T04:07:35;5.22;;;2.28;;
28848;SDS011;15981;43.292;-2.888;2023-01-01T04:10:01;4.95;;;2.55;;
28848;SDS011;15981;43.292;-2.888;2023-01-01T04:12:45;4.60;;;2.47;;
28848;SDS011;15981;43.292;-2.888;2023-01-01T04:15:11;7.20;;;2.75;;
28848;SDS011;15981;43.292;-2.888;2023-01-01T04:17:37;3.47;;;2.17;;
28848;SDS011;15981;43.292;-2.888;2023-01-01T04:20:03;7.55;;;2.28;;
28848;SDS011;15981;43.292;-2.888;2023-01-01T04:22:28;4.20;;;2.42;;
28848;SDS011;15981;43.292;-2.888;2023-01-01T04:24:54;5.43;;;2.30;;
28848;SDS011;15981;43.292;-2.888;2023-01-01T04:27:20;3.80;;;2.00;;
28848;SDS011;15981;43.292;-2.888;2023-01-01T04:29:46;5.82;;;2.45;;
28848;SDS011;15981;43.292;-2.888;2023-01-01T04:32:11;4.03;;;2.45;;
28848;SDS011;15981;43.292;-2.888;2023-01-01T04:34:37;4.80;;;2.50;;
28848;SDS011;15981;43.292;-2.888;2023-01-01T04:37:03;4.95;;;2.45;;
28848;SDS011;15981;43.292;-2.888;2023-01-01T04:39:29;3.83;;;2.08;;
28848;SDS011;15981;43.292;-2.888;2023-01-01T04:41:54;4.72;;;2.47;;
28848;SDS011;15981;43.292;-2.888;2023-01-01T04:44:20;3.30;;;2.08;;
28848;SDS011;15981;43.292;-2.888;2023-01-01T04:46:46;5.32;;;2.72;;
28848;SDS011;15981;43.292;-2.888;2023-01-01T04:49:12;3.88;;;2.45;;
28848;SDS011;15981;43.292;-2.888;2023-01-01T04:51:37;2.92;;;2.00;;
28848;SDS011;15981;43.292;-2.888;2023-01-01T04:54:03;5.20;;;2.35;;
28848;SDS011;15981;43.292;-2.888;2023-01-01T04:56:29;8.05;;;2.70;;
28848;SDS011;15981;43.292;-2.888;2023-01-01T04:58:55;4.45;;;2.33;;
28848;SDS011;15981;43.292;-2.888;2023-01-01T05:01:23;4.60;;;2.40;;
28848;SDS011;15981;43.292;-2.888;2023-01-01T05:03:49;3.70;;;2.13;;
28848;SDS011;15981;43.292;-2.888;2023-01-01T05:06:14;5.05;;;2.47;;
28848;SDS011;15981;43.292;-2.888;2023-01-01T05:08:41;6.05;;;2.83;;
28848;SDS011;15981;43.292;-2.888;2023-01-01T05:11:08;4.72;;;2.25;;
28848;SDS011;15981;43.292;-2.888;2023-01-01T05:13:35;4.40;;;2.28;;
28848;SDS011;15981;43.292;-2.888;2023-01-01T05:16:02;4.68;;;2.22;;
28848;SDS011;15981;43.292;-2.888;2023-01-01T05:18:28;5.25;;;2.42;;
28848;SDS011;15981;43.292;-2.888;2023-01-01T05:20:57;4.93;;;2.58;;
28848;SDS011;15981;43.292;-2.888;2023-01-01T05:23:23;4.07;;;2.50;;
28848;SDS011;15981;43.292;-2.888;2023-01-01T05:25:49;4.70;;;2.38;;
28848;SDS011;15981;43.292;-2.888;2023-01-01T05:28:15;4.75;;;2.40;;
28848;SDS011;15981;43.292;-2.888;2023-01-01T05:30:40;8.15;;;2.70;;
28848;SDS011;15981;43.292;-2.888;2023-01-01T05:33:06;3.58;;;1.90;;
28848;SDS011;15981;43.292;-2.888;2023-01-01T05:35:32;3.60;;;2.17;;
28848;SDS011;15981;43.292;-2.888;2023-01-01T05:37:57;3.25;;;1.98;;
28848;SDS011;15981;43.292;-2.888;2023-01-01T05:40:24;3.70;;;2.00;;
28848;SDS011;15981;43.292;-2.888;2023-01-01T05:42:50;5.88;;;2.35;;
28848;SDS011;15981;43.292;-2.888;2023-01-01T05:45:16;4.38;;;2.17;;
28848;SDS011;15981;43.292;-2.888;2023-01-01T05:47:41;4.50;;;2.38;;
28848;SDS011;15981;43.292;-2.888;2023-01-01T05:50:07;6.30;;;2.00;;
28848;SDS011;15981;43.292;-2.888;2023-01-01T05:52:33;7.28;;;2.88;;
28848;SDS011;15981;43.292;-2.888;2023-01-01T05:54:59;5.35;;;2.58;;
28848;SDS011;15981;43.292;-2.888;2023-01-01T05:57:28;4.88;;;2.40;;
28848;SDS011;15981;43.292;-2.888;2023-01-01T05:59:54;5.50;;;2.17;;
28848;SDS011;15981;43.292;-2.888;2023-01-01T06:02:20;5.93;;;2.83;;
28848;SDS011;15981;43.292;-2.888;2023-01-01T06:04:46;4.18;;;2.00;;
28848;SDS011;15981;43.292;-2.888;2023-01-01T06:07:11;6.25;;;2.30;;
28848;SDS011;15981;43.292;-2.888;2023-01-01T06:09:37;6.25;;;2.25;;
28848;SDS011;15981;43.292;-2.888;2023-01-01T06:12:03;5.70;;;2.10;;
28848;SDS011;15981;43.292;-2.888;2023-01-01T06:14:29;5.68;;;2.47;;
28848;SDS011;15981;43.292;-2.888;2023-01-01T06:16:54;4.78;;;2.20;;
28848;SDS011;15981;43.292;-2.888;2023-01-01T06:19:20;6.95;;;2.40;;
28848;SDS011;15981;43.292;-2.888;2023-01-01T06:21:46;5.25;;;2.20;;
28848;SDS011;15981;43.292;-2.888;2023-01-01T06:24:11;4.07;;;2.00;;
28848;SDS011;15981;43.292;-2.888;2023-01-01T06:26:37;4.32;;;2.10;;
28848;SDS011;15981;43.292;-2.888;2023-01-01T06:29:03;6.82;;;2.20;;
28848;SDS011;15981;43.292;-2.888;2023-01-01T06:31:29;4.70;;;2.15;;
28848;SDS011;15981;43.292;-2.888;2023-01-01T06:33:55;7.05;;;2.40;;
28848;SDS011;15981;43.292;-2.888;2023-01-01T06:36:22;6.85;;;2.42;;
28848;SDS011;15981;43.292;-2.888;2023-01-01T06:38:50;6.47;;;2.25;;
28848;SDS011;15981;43.292;-2.888;2023-01-01T06:41:17;4.68;;;2.10;;
28848;SDS011;15981;43.292;-2.888;2023-01-01T06:43:43;3.45;;;1.90;;
28848;SDS011;15981;43.292;-2.888;2023-01-01T06:46:25;6.70;;;2.10;;
28848;SDS011;15981;43.292;-2.888;2023-01-01T06:48:52;4.78;;;2.38;;
28848;SDS011;15981;43.292;-2.888;2023-01-01T06:51:20;4.50;;;2.25;;
28848;SDS011;15981;43.292;-2.888;2023-01-01T06:53:46;4.60;;;1.83;;
28848;SDS011;15981;43.292;-2.888;2023-01-01T06:56:12;4.90;;;2.17;;
28848;SDS011;15981;43.292;-2.888;2023-01-01T06:58:38;7.00;;;2.55;;
28848;SDS011;15981;43.292;-2.888;2023-01-01T07:01:11;5.05;;;2.13;;
28848;SDS011;15981;43.292;-2.888;2023-01-01T07:03:37;3.17;;;1.90;;
28848;SDS011;15981;43.292;-2.888;2023-01-01T07:06:03;3.50;;;2.03;;
28848;SDS011;15981;43.292;-2.888;2023-01-01T07:08:29;4.30;;;2.10;;
28848;SDS011;15981;43.292;-2.888;2023-01-01T07:10:55;4.35;;;2.42;;
28848;SDS011;15981;43.292;-2.888;2023-01-01T07:13:23;5.63;;;2.17;;
28848;SDS011;15981;43.292;-2.888;2023-01-01T07:15:49;3.83;;;1.90;;
28848;SDS011;15981;43.292;-2.888;2023-01-01T07:18:15;4.57;;;2.03;;
28848;SDS011;15981;43.292;-2.888;2023-01-01T07:20:41;3.58;;;2.20;;
28848;SDS011;15981;43.292;-2.888;2023-01-01T07:23:07;3.58;;;1.80;;
28848;SDS011;15981;43.292;-2.888;2023-01-01T07:25:35;3.83;;;1.90;;
28848;SDS011;15981;43.292;-2.888;2023-01-01T07:28:01;4.90;;;2.13;;
28848;SDS011;15981;43.292;-2.888;2023-01-01T07:30:26;3.13;;;1.83;;
28848;SDS011;15981;43.292;-2.888;2023-01-01T07:32:55;4.68;;;1.98;;
28848;SDS011;15981;43.292;-2.888;2023-01-01T07:35:20;7.03;;;1.98;;
28848;SDS011;15981;43.292;-2.888;2023-01-01T07:37:46;4.32;;;2.10;;
28848;SDS011;15981;43.292;-2.888;2023-01-01T07:40:12;6.40;;;2.40;;
28848;SDS011;15981;43.292;-2.888;2023-01-01T07:42:38;6.68;;;2.35;;
28848;SDS011;15981;43.292;-2.888;2023-01-01T07:45:04;6.18;;;2.10;;
28848;SDS011;15981;43.292;-2.888;2023-01-01T07:47:29;3.55;;;1.90;;
28848;SDS011;15981;43.292;-2.888;2023-01-01T07:49:55;6.30;;;2.17;;
28848;SDS011;15981;43.292;-2.888;2023-01-01T07:52:21;3.38;;;2.15;;
28848;SDS011;15981;43.292;-2.888;2023-01-01T07:54:46;4.45;;;2.17;;
28848;SDS011;15981;43.292;-2.888;2023-01-01T07:57:12;4.32;;;1.98;;
28848;SDS011;15981;43.292;-2.888;2023-01-01T07:59:38;4.90;;;2.47;;
28848;SDS011;15981;43.292;-2.888;2023-01-01T08:02:04;4.47;;;2.33;;
28848;SDS011;15981;43.292;-2.888;2023-01-01T08:04:29;3.42;;;1.88;;
28848;SDS011;15981;43.292;-2.888;2023-01-01T08:06:55;5.18;;;2.00;;
28848;SDS011;15981;43.292;-2.888;2023-01-01T08:09:21;3.92;;;2.20;;
28848;SDS011;15981;43.292;-2.888;2023-01-01T08:11:46;5.40;;;2.00;;
28848;SDS011;15981;43.292;-2.888;2023-01-01T08:14:12;4.50;;;2.00;;
28848;SDS011;15981;43.292;-2.888;2023-01-01T08:16:38;4.13;;;1.90;;
28848;SDS011;15981;43.292;-2.888;2023-01-01T08:19:04;3.10;;;1.90;;
28848;SDS011;15981;43.292;-2.888;2023-01-01T08:21:30;3.92;;;1.80;;
28848;SDS011;15981;43.292;-2.888;2023-01-01T08:23:56;4.88;;;2.10;;
28848;SDS011;15981;43.292;-2.888;2023-01-01T08:26:31;5.72;;;2.00;;
28848;SDS011;15981;43.292;-2.888;2023-01-01T08:28:58;3.30;;;2.10;;
28848;SDS011;15981;43.292;-2.888;2023-01-01T08:31:23;5.72;;;2.05;;
28848;SDS011;15981;43.292;-2.888;2023-01-01T08:33:49;4.15;;;1.83;;
28848;SDS011;15981;43.292;-2.888;2023-01-01T08:36:15;3.80;;;1.95;;
28848;SDS011;15981;43.292;-2.888;2023-01-01T08:38:41;4.22;;;1.95;;
28848;SDS011;15981;43.292;-2.888;2023-01-01T08:41:08;4.57;;;1.70;;
28848;SDS011;15981;43.292;-2.888;2023-01-01T08:43:34;7.57;;;1.90;;
28848;SDS011;15981;43.292;-2.888;2023-01-01T08:45:59;6.95;;;2.20;;
28848;SDS011;15981;43.292;-2.888;2023-01-01T08:48:25;3.78;;;1.75;;
28848;SDS011;15981;43.292;-2.888;2023-01-01T08:50:54;5.55;;;1.70;;
28848;SDS011;15981;43.292;-2.888;2023-01-01T08:53:20;6.13;;;2.00;;
28848;SDS011;15981;43.292;-2.888;2023-01-01T08:55:59;4.75;;;1.67;;
28848;SDS011;15981;43.292;-2.888;2023-01-01T08:58:26;3.42;;;1.90;;
28848;SDS011;15981;43.292;-2.888;2023-01-01T09:00:52;4.18;;;1.77;;
28848;SDS011;15981;43.292;-2.888;2023-01-01T09:03:18;3.70;;;1.67;;
28848;SDS011;15981;43.292;-2.888;2023-01-01T09:05:44;3.58;;;1.80;;
28848;SDS011;15981;43.292;-2.888;2023-01-01T09:08:10;2.90;;;1.92;;
28848;SDS011;15981;43.292;-2.888;2023-01-01T09:10:36;4.15;;;1.83;;
28848;SDS011;15981;43.292;-2.888;2023-01-01T09:13:02;4.38;;;1.67;;
28848;SDS011;15981;43.292;-2.888;2023-01-01T09:15:28;7.28;;;3.38;;
28848;SDS011;15981;43.292;-2.888;2023-01-01T09:17:53;9.38;;;6.80;;
28848;SDS011;15981;43.292;-2.888;2023-01-01T09:20:19;18.35;;;12.15;;
28848;SDS011;15981;43.292;-2.888;2023-01-01T09:22:45;21.88;;;16.00;;
28848;SDS011;15981;43.292;-2.888;2023-01-01T09:25:11;26.80;;;18.27;;
28848;SDS011;15981;43.292;-2.888;2023-01-01T09:27:36;26.63;;;19.67;;
28848;SDS011;15981;43.292;-2.888;2023-01-01T09:30:02;23.83;;;17.70;;
28848;SDS011;15981;43.292;-2.888;2023-01-01T09:32:28;21.65;;;15.50;;
28848;SDS011;15981;43.292;-2.888;2023-01-01T09:34:54;16.83;;;12.05;;
28848;SDS011;15981;43.292;-2.888;2023-01-01T09:37:21;14.23;;;10.40;;
28848;SDS011;15981;43.292;-2.888;2023-01-01T09:39:47;12.85;;;9.70;;
28848;SDS011;15981;43.292;-2.888;2023-01-01T09:42:19;13.27;;;8.38;;
28848;SDS011;15981;43.292;-2.888;2023-01-01T09:44:52;10.60;;;5.82;;
28848;SDS011;15981;43.292;-2.888;2023-01-01T09:47:25;8.77;;;5.25;;
28848;SDS011;15981;43.292;-2.888;2023-01-01T09:49:53;7.80;;;4.75;;
28848;SDS011;15981;43.292;-2.888;2023-01-01T09:52:19;7.80;;;4.70;;
28848;SDS011;15981;43.292;-2.888;2023-01-01T09:57:15;7.25;;;4.07;;
28848;SDS011;15981;43.292;-2.888;2023-01-01T09:59:41;6.15;;;3.33;;
28848;SDS011;15981;43.292;-2.888;2023-01-01T10:07:20;3.80;;;2.20;;
28848;SDS011;15981;43.292;-2.888;2023-01-01T10:09:49;4.30;;;2.40;;
28848;SDS011;15981;43.292;-2.888;2023-01-01T10:12:21;6.60;;;2.35;;
28848;SDS011;15981;43.292;-2.888;2023-01-01T10:14:54;8.45;;;2.72;;
28848;SDS011;15981;43.292;-2.888;2023-01-01T10:17:30;5.70;;;3.22;;
28848;SDS011;15981;43.292;-2.888;2023-01-01T10:20:02;6.57;;;3.95;;
28848;SDS011;15981;43.292;-2.888;2023-01-01T10:22:41;4.20;;;3.00;;
28848;SDS011;15981;43.292;-2.888;2023-01-01T10:27:55;6.28;;;3.13;;
28848;SDS011;15981;43.292;-2.888;2023-01-01T10:30:21;5.30;;;2.90;;
28848;SDS011;15981;43.292;-2.888;2023-01-01T10:32:48;6.25;;;2.97;;
28848;SDS011;15981;43.292;-2.888;2023-01-01T10:35:16;7.05;;;2.88;;
28848;SDS011;15981;43.292;-2.888;2023-01-01T10:37:42;5.93;;;2.80;;
28848;SDS011;15981;43.292;-2.888;2023-01-01T10:40:18;4.82;;;2.40;;
28848;SDS011;15981;43.292;-2.888;2023-01-01T10:42:46;5.35;;;2.30;;
28848;SDS011;15981;43.292;-2.888;2023-01-01T10:45:16;8.07;;;2.40;;
28848;SDS011;15981;43.292;-2.888;2023-01-01T10:50:49;7.55;;;2.30;;
28848;SDS011;15981;43.292;-2.888;2023-01-01T10:53:20;5.47;;;2.40;;
28848;SDS011;15981;43.292;-2.888;2023-01-01T10:55:49;8.25;;;3.30;;
28848;SDS011;15981;43.292;-2.888;2023-01-01T11:01:02;7.95;;;3.20;;
28848;SDS011;15981;43.292;-2.888;2023-01-01T11:03:28;7.15;;;3.15;;
28848;SDS011;15981;43.292;-2.888;2023-01-01T11:08:36;4.07;;;2.50;;
28848;SDS011;15981;43.292;-2.888;2023-01-01T11:11:02;4.28;;;2.40;;
28848;SDS011;15981;43.292;-2.888;2023-01-01T11:13:28;5.20;;;2.10;;
28848;SDS011;15981;43.292;-2.888;2023-01-01T11:15:55;4.68;;;1.92;;
28848;SDS011;15981;43.292;-2.888;2023-01-01T11:18:22;5.05;;;1.88;;
28848;SDS011;15981;43.292;-2.888;2023-01-01T11:20:51;4.32;;;1.88;;
28848;SDS011;15981;43.292;-2.888;2023-01-01T11:23:38;5.95;;;1.88;;
28848;SDS011;15981;43.292;-2.888;2023-01-01T11:28:30;3.38;;;1.60;;
28848;SDS011;15981;43.292;-2.888;2023-01-01T11:31:00;4.80;;;1.85;;
28848;SDS011;15981;43.292;-2.888;2023-01-01T11:33:26;5.60;;;1.92;;
28848;SDS011;15981;43.292;-2.888;2023-01-01T11:35:54;4.07;;;2.10;;
28848;SDS011;15981;43.292;-2.888;2023-01-01T11:38:21;3.17;;;1.70;;
28848;SDS011;15981;43.292;-2.888;2023-01-01T11:40:49;3.75;;;1.90;;
28848;SDS011;15981;43.292;-2.888;2023-01-01T11:43:18;3.90;;;1.92;;
28848;SDS011;15981;43.292;-2.888;2023-01-01T11:45:45;4.07;;;1.73;;
28848;SDS011;15981;43.292;-2.888;2023-01-01T11:48:15;4.90;;;1.80;;
28848;SDS011;15981;43.292;-2.888;2023-01-01T11:50:48;3.15;;;1.55;;
28848;SDS011;15981;43.292;-2.888;2023-01-01T11:58:21;4.28;;;1.67;;
28848;SDS011;15981;43.292;-2.888;2023-01-01T12:00:50;3.20;;;1.77;;
28848;SDS011;15981;43.292;-2.888;2023-01-01T12:03:22;4.10;;;1.65;;
28848;SDS011;15981;43.292;-2.888;2023-01-01T12:08:36;2.20;;;1.50;;
28848;SDS011;15981;43.292;-2.888;2023-01-01T12:11:10;4.53;;;1.60;;
28848;SDS011;15981;43.292;-2.888;2023-01-01T12:13:42;4.97;;;1.70;;
28848;SDS011;15981;43.292;-2.888;2023-01-01T12:16:11;4.63;;;1.65;;
28848;SDS011;15981;43.292;-2.888;2023-01-01T12:18:44;2.10;;;1.50;;
28848;SDS011;15981;43.292;-2.888;2023-01-01T12:23:43;3.22;;;1.58;;
28848;SDS011;15981;43.292;-2.888;2023-01-01T12:28:58;3.88;;;1.70;;
28848;SDS011;15981;43.292;-2.888;2023-01-01T12:31:30;3.70;;;1.60;;
28848;SDS011;15981;43.292;-2.888;2023-01-01T12:34:03;1.90;;;1.30;;
28848;SDS011;15981;43.292;-2.888;2023-01-01T12:44:05;3.80;;;1.77;;
28848;SDS011;15981;43.292;-2.888;2023-01-01T12:46:55;2.85;;;1.40;;
28848;SDS011;15981;43.292;-2.888;2023-01-01T12:51:56;1.85;;;1.20;;
28848;SDS011;15981;43.292;-2.888;2023-01-01T12:54:35;2.28;;;1.20;;
28848;SDS011;15981;43.292;-2.888;2023-01-01T12:59:33;3.65;;;1.40;;
28848;SDS011;15981;43.292;-2.888;2023-01-01T13:02:00;2.40;;;1.50;;
28848;SDS011;15981;43.292;-2.888;2023-01-01T13:04:27;1.98;;;1.30;;
28848;SDS011;15981;43.292;-2.888;2023-01-01T13:06:59;4.80;;;1.70;;
28848;SDS011;15981;43.292;-2.888;2023-01-01T13:09:29;2.60;;;1.63;;
28848;SDS011;15981;43.292;-2.888;2023-01-01T13:11:59;4.22;;;1.80;;
28848;SDS011;15981;43.292;-2.888;2023-01-01T13:14:25;2.47;;;1.23;;
28848;SDS011;15981;43.292;-2.888;2023-01-01T13:16:52;4.90;;;1.90;;
28848;SDS011;15981;43.292;-2.888;2023-01-01T13:19:34;2.88;;;1.40;;
28848;SDS011;15981;43.292;-2.888;2023-01-01T13:33:26;4.20;;;1.45;;
28848;SDS011;15981;43.292;-2.888;2023-01-01T13:57:02;2.72;;;1.48;;
28848;SDS011;15981;43.292;-2.888;2023-01-01T14:02:24;4.50;;;1.77;;
28848;SDS011;15981;43.292;-2.888;2023-01-01T14:05:37;3.42;;;1.60;;
28848;SDS011;15981;43.292;-2.888;2023-01-01T14:10:23;2.55;;;1.30;;
28848;SDS011;15981;43.292;-2.888;2023-01-01T14:12:49;2.25;;;1.40;;
28848;SDS011;15981;43.292;-2.888;2023-01-01T14:15:23;3.70;;;1.65;;
28848;SDS011;15981;43.292;-2.888;2023-01-01T14:17:50;2.58;;;1.30;;
28848;SDS011;15981;43.292;-2.888;2023-01-01T14:20:16;4.95;;;1.70;;
28848;SDS011;15981;43.292;-2.888;2023-01-01T14:22:43;3.35;;;1.52;;
28848;SDS011;15981;43.292;-2.888;2023-01-01T14:25:19;3.70;;;1.20;;
28848;SDS011;15981;43.292;-2.888;2023-01-01T14:27:48;3.38;;;1.40;;
28848;SDS011;15981;43.292;-2.888;2023-01-01T14:30:14;3.78;;;1.50;;
28848;SDS011;15981;43.292;-2.888;2023-01-01T14:32:40;2.72;;;1.13;;
28848;SDS011;15981;43.292;-2.888;2023-01-01T14:35:15;2.58;;;1.50;;
28848;SDS011;15981;43.292;-2.888;2023-01-01T14:37:41;2.95;;;1.40;;
28848;SDS011;15981;43.292;-2.888;2023-01-01T14:42:39;2.63;;;1.45;;
28848;SDS011;15981;43.292;-2.888;2023-01-01T14:45:05;3.63;;;1.45;;
28848;SDS011;15981;43.292;-2.888;2023-01-01T14:47:33;5.65;;;1.42;;
28848;SDS011;15981;43.292;-2.888;2023-01-01T14:50:04;3.70;;;1.38;;
28848;SDS011;15981;43.292;-2.888;2023-01-01T14:52:36;2.97;;;1.20;;
28848;SDS011;15981;43.292;-2.888;2023-01-01T14:55:02;4.53;;;1.98;;
28848;SDS011;15981;43.292;-2.888;2023-01-01T14:57:29;2.85;;;1.70;;
28848;SDS011;15981;43.292;-2.888;2023-01-01T14:59:55;3.83;;;1.30;;
28848;SDS011;15981;43.292;-2.888;2023-01-01T15:02:25;2.60;;;1.58;;
28848;SDS011;15981;43.292;-2.888;2023-01-01T15:04:53;2.47;;;1.45;;
28848;SDS011;15981;43.292;-2.888;2023-01-01T15:07:26;3.50;;;1.52;;
28848;SDS011;15981;43.292;-2.888;2023-01-01T15:09:53;5.43;;;1.80;;
28848;SDS011;15981;43.292;-2.888;2023-01-01T15:12:19;4.35;;;1.40;;
28848;SDS011;15981;43.292;-2.888;2023-01-01T15:14:46;4.05;;;1.30;;
28848;SDS011;15981;43.292;-2.888;2023-01-01T15:17:19;3.20;;;1.35;;
28848;SDS011;15981;43.292;-2.888;2023-01-01T15:19:47;3.85;;;1.40;;
28848;SDS011;15981;43.292;-2.888;2023-01-01T15:22:28;2.53;;;1.13;;
28848;SDS011;15981;43.292;-2.888;2023-01-01T15:24:58;1.88;;;1.20;;
28848;SDS011;15981;43.292;-2.888;2023-01-01T15:27:26;3.95;;;1.55;;
28848;SDS011;15981;43.292;-2.888;2023-01-01T15:29:52;3.50;;;1.45;;
28848;SDS011;15981;43.292;-2.888;2023-01-01T15:32:23;2.28;;;1.42;;
28848;SDS011;15981;43.292;-2.888;2023-01-01T15:34:50;2.20;;;1.13;;
28848;SDS011;15981;43.292;-2.888;2023-01-01T15:42:38;3.05;;;1.13;;
28848;SDS011;15981;43.292;-2.888;2023-01-01T15:47:50;1.80;;;1.10;;
28848;SDS011;15981;43.292;-2.888;2023-01-01T15:52:42;2.78;;;1.20;;
28848;SDS011;15981;43.292;-2.888;2023-01-01T15:55:14;1.50;;;1.00;;
28848;SDS011;15981;43.292;-2.888;2023-01-01T15:57:44;2.25;;;1.23;;
28848;SDS011;15981;43.292;-2.888;2023-01-01T16:00:18;2.55;;;1.50;;
28848;SDS011;15981;43.292;-2.888;2023-01-01T16:02:43;3.83;;;1.48;;
28848;SDS011;15981;43.292;-2.888;2023-01-01T16:05:13;2.55;;;1.42;;
28848;SDS011;15981;43.292;-2.888;2023-01-01T16:07:40;3.05;;;1.83;;
28848;SDS011;15981;43.292;-2.888;2023-01-01T16:10:10;3.67;;;2.17;;
28848;SDS011;15981;43.292;-2.888;2023-01-01T16:12:37;1.42;;;1.25;;
28848;SDS011;15981;43.292;-2.888;2023-01-01T16:15:03;3.78;;;2.05;;
28848;SDS011;15981;43.292;-2.888;2023-01-01T16:17:29;4.40;;;1.80;;
28848;SDS011;15981;43.292;-2.888;2023-01-01T16:19:55;3.97;;;2.28;;
28848;SDS011;15981;43.292;-2.888;2023-01-01T16:22:20;4.32;;;2.38;;
28848;SDS011;15981;43.292;-2.888;2023-01-01T16:24:46;3.25;;;1.85;;
28848;SDS011;15981;43.292;-2.888;2023-01-01T16:27:12;3.03;;;1.80;;
28848;SDS011;15981;43.292;-2.888;2023-01-01T16:29:38;4.75;;;2.65;;
28848;SDS011;15981;43.292;-2.888;2023-01-01T16:32:04;4.25;;;2.10;;
28848;SDS011;15981;43.292;-2.888;2023-01-01T16:34:30;3.22;;;2.45;;
28848;SDS011;15981;43.292;-2.888;2023-01-01T16:36:55;3.45;;;1.80;;
28848;SDS011;15981;43.292;-2.888;2023-01-01T16:39:21;5.28;;;2.10;;
28848;SDS011;15981;43.292;-2.888;2023-01-01T16:41:47;4.97;;;2.20;;
28848;SDS011;15981;43.292;-2.888;2023-01-01T16:44:14;3.05;;;1.55;;